createdAt,value
2018-05-03T00:01:48.089Z,15.47
2018-05-03T00:04:15.535Z,15.53
2018-05-03T00:06:42.963Z,15.58
2018-05-03T00:09:10.524Z,15.55
2018-05-03T00:11:37.989Z,15.46
2018-05-03T00:14:05.423Z,15.49
2018-05-03T00:16:32.883Z,15.51
2018-05-03T00:19:00.312Z,15.60
2018-05-03T00:21:27.774Z,15.64
2018-05-03T00:23:55.224Z,15.66
2018-05-03T00:26:22.705Z,15.66
2018-05-03T00:28:50.173Z,15.50
2018-05-03T00:31:17.671Z,15.53
2018-05-03T00:33:45.144Z,15.57
2018-05-03T00:36:12.581Z,15.56
2018-05-03T00:38:40.067Z,15.57
2018-05-03T00:41:07.536Z,15.58
2018-05-03T00:43:35.067Z,15.60
2018-05-03T00:46:02.557Z,15.66
2018-05-03T00:48:30.104Z,15.64
2018-05-03T00:50:57.549Z,15.61
2018-05-03T00:53:25.177Z,15.67
2018-05-03T00:55:52.679Z,15.55
2018-05-03T00:58:20.092Z,15.54
2018-05-03T01:00:47.545Z,15.46
2018-05-03T01:03:14.999Z,15.39
2018-05-03T01:05:42.465Z,15.42
2018-05-03T01:08:09.885Z,15.43
2018-05-03T01:10:37.338Z,15.42
2018-05-03T01:13:04.772Z,15.33
2018-05-03T01:15:32.205Z,15.36
2018-05-03T01:17:59.650Z,15.36
2018-05-03T01:20:27.109Z,15.37
2018-05-03T01:22:54.588Z,15.34
2018-05-03T01:25:22.974Z,15.33
2018-05-03T01:27:50.572Z,15.29
2018-05-03T01:30:18.136Z,15.24
2018-05-03T01:32:45.653Z,15.17
2018-05-03T01:35:25.027Z,15.22
2018-05-03T01:37:52.471Z,15.23
2018-05-03T01:40:19.928Z,15.27
2018-05-03T01:42:47.349Z,15.23
2018-05-03T01:45:14.763Z,15.23
2018-05-03T01:47:42.260Z,15.24
2018-05-03T01:50:09.687Z,15.22
2018-05-03T01:52:37.210Z,15.17
2018-05-03T01:55:04.661Z,15.18
2018-05-03T01:57:32.327Z,15.21
2018-05-03T01:59:59.763Z,15.23
2018-05-03T02:02:27.232Z,15.18
2018-05-03T02:04:54.657Z,15.16
2018-05-03T02:07:22.121Z,15.15
2018-05-03T02:09:49.572Z,15.13
2018-05-03T02:12:17.013Z,15.10
2018-05-03T02:14:44.486Z,15.13
2018-05-03T02:17:12.014Z,15.10
2018-05-03T02:19:39.641Z,14.98
2018-05-03T02:22:07.106Z,15.09
2018-05-03T02:24:34.559Z,15.09
2018-05-03T02:27:02.009Z,15.09
2018-05-03T02:29:29.461Z,15.08
2018-05-03T02:31:56.889Z,15.11
2018-05-03T02:34:24.350Z,15.13
2018-05-03T02:36:51.774Z,15.12
2018-05-03T02:39:19.240Z,15.01
2018-05-03T02:41:46.663Z,15.00
2018-05-03T02:44:14.109Z,14.97
2018-05-03T02:46:41.551Z,15.02
2018-05-03T02:49:09.004Z,14.99
2018-05-03T02:51:36.477Z,14.88
2018-05-03T02:54:04.037Z,14.94
2018-05-03T02:56:31.575Z,14.96
2018-05-03T02:59:10.849Z,14.99
2018-05-03T03:01:54.861Z,15.03
2018-05-03T03:04:39.575Z,15.06
2018-05-03T03:07:20.296Z,15.00
2018-05-03T03:13:35.592Z,14.94
2018-05-03T03:19:30.235Z,14.75
2018-05-03T03:22:15.155Z,14.78
2018-05-03T03:24:54.321Z,14.87
2018-05-03T03:27:43.010Z,14.93
2018-05-03T03:33:34.030Z,14.94
2018-05-03T03:36:13.231Z,14.90
2018-05-03T03:38:52.524Z,14.92
2018-05-03T03:41:31.614Z,14.93
2018-05-03T03:44:10.860Z,14.94
2018-05-03T03:46:38.300Z,14.94
2018-05-03T03:49:05.738Z,14.92
2018-05-03T03:51:33.201Z,14.96
2018-05-03T03:54:01.512Z,14.97
2018-05-03T03:56:28.941Z,14.94
2018-05-03T03:58:56.426Z,14.91
2018-05-03T04:01:23.873Z,14.78
2018-05-03T04:03:51.308Z,14.73
2018-05-03T04:06:18.757Z,14.69
2018-05-03T04:08:46.218Z,14.65
2018-05-03T04:11:13.675Z,14.66
2018-05-03T04:13:42.680Z,14.71
2018-05-03T04:16:10.152Z,14.75
2018-05-03T04:18:49.336Z,14.78
2018-05-03T04:21:28.481Z,14.75
2018-05-03T04:24:08.507Z,14.76
2018-05-03T04:26:35.995Z,14.79
2018-05-03T04:29:03.425Z,14.82
2018-05-03T04:31:30.887Z,14.83
2018-05-03T04:33:58.344Z,14.85
2018-05-03T04:36:25.957Z,14.87
2018-05-03T04:38:53.393Z,14.92
2018-05-03T04:41:20.915Z,14.92
2018-05-03T04:43:48.367Z,14.87
2018-05-03T04:46:15.807Z,14.93
2018-05-03T04:48:43.342Z,15.00
2018-05-03T04:51:10.784Z,15.02
2018-05-03T04:53:38.261Z,15.00
2018-05-03T04:56:05.698Z,14.99
2018-05-03T04:58:33.333Z,15.03
2018-05-03T05:01:00.770Z,15.09
2018-05-03T05:03:28.222Z,15.03
2018-05-03T05:05:56.193Z,14.98
2018-05-03T05:08:23.742Z,14.77
2018-05-03T05:10:51.341Z,14.87
2018-05-03T05:13:18.779Z,14.92
2018-05-03T05:15:46.251Z,15.00
2018-05-03T05:18:13.688Z,15.07
2018-05-03T05:20:41.126Z,15.14
2018-05-03T05:23:08.620Z,15.17
2018-05-03T05:25:36.094Z,15.23
2018-05-03T05:28:03.543Z,15.28
2018-05-03T05:30:31.040Z,15.23
2018-05-03T05:32:58.480Z,15.28
2018-05-03T05:35:26.029Z,15.29
2018-05-03T05:37:53.502Z,15.32
2018-05-03T05:40:20.982Z,15.16
2018-05-03T05:42:48.421Z,15.27
2018-05-03T05:45:15.860Z,15.28
2018-05-03T05:47:43.339Z,15.33
2018-05-03T05:50:10.773Z,15.37
2018-05-03T05:52:38.398Z,15.39
2018-05-03T05:55:05.827Z,15.41
2018-05-03T05:57:33.324Z,15.41
2018-05-03T06:00:00.767Z,15.36
2018-05-03T06:02:28.215Z,15.41
2018-05-03T06:04:55.659Z,15.43
2018-05-03T06:07:23.115Z,15.24
2018-05-03T06:09:50.583Z,15.14
2018-05-03T06:12:18.082Z,15.10
2018-05-03T06:14:45.706Z,14.93
2018-05-03T06:17:13.181Z,15.07
2018-05-03T06:19:40.660Z,15.05
2018-05-03T06:22:08.100Z,15.03
2018-05-03T06:24:35.674Z,15.11
2018-05-03T06:27:03.072Z,15.17
2018-05-03T06:29:30.510Z,15.18
2018-05-03T06:31:58.020Z,15.20
2018-05-03T06:34:25.409Z,15.07
2018-05-03T06:36:52.863Z,15.00
2018-05-03T06:39:20.310Z,15.17
2018-05-03T06:41:48.127Z,15.34
2018-05-03T06:44:15.611Z,15.32
2018-05-03T06:46:43.045Z,15.35
2018-05-03T06:49:10.501Z,15.35
2018-05-03T06:51:37.954Z,15.26
2018-05-03T06:54:05.428Z,15.21
2018-05-03T06:56:32.942Z,15.05
2018-05-03T06:59:00.599Z,15.20
2018-05-03T07:01:28.024Z,15.23
2018-05-03T07:03:55.519Z,15.33
2018-05-03T07:06:23.079Z,15.46
2018-05-03T07:08:51.371Z,15.60
2018-05-03T07:11:18.800Z,15.54
2018-05-03T07:13:46.270Z,15.55
2018-05-03T07:16:13.794Z,15.39
2018-05-03T07:18:41.189Z,15.40
2018-05-03T07:21:08.667Z,15.33
2018-05-03T07:23:36.181Z,15.39
2018-05-03T07:26:03.629Z,15.31
2018-05-03T07:28:31.190Z,15.48
2018-05-03T07:30:58.691Z,15.65
2018-05-03T07:33:26.173Z,15.71
2018-05-03T07:35:53.637Z,15.82
2018-05-03T07:38:21.075Z,15.93
2018-05-03T07:40:48.550Z,16.01
2018-05-03T07:43:15.957Z,16.10
2018-05-03T07:45:43.413Z,16.25
2018-05-03T07:48:10.843Z,16.04
2018-05-03T07:50:38.319Z,16.03
2018-05-03T07:53:05.751Z,16.03
2018-05-03T07:55:33.208Z,15.92
2018-05-03T07:58:00.652Z,16.17
2018-05-03T08:00:28.179Z,16.27
2018-05-03T08:02:55.629Z,16.35
2018-05-03T08:05:23.095Z,16.42
2018-05-03T08:07:50.542Z,16.44
2018-05-03T08:10:17.996Z,16.49
2018-05-03T08:12:45.476Z,16.22
2018-05-03T08:15:12.894Z,15.99
2018-05-03T08:17:40.347Z,16.16
2018-05-03T08:20:07.808Z,16.07
2018-05-03T08:22:35.237Z,16.00
2018-05-03T08:25:02.711Z,16.05
2018-05-03T08:27:30.153Z,16.02
2018-05-03T08:29:57.636Z,16.08
2018-05-03T08:32:25.067Z,16.39
2018-05-03T08:34:52.520Z,16.43
2018-05-03T08:37:19.959Z,16.45
2018-05-03T08:39:47.404Z,16.37
2018-05-03T08:42:14.894Z,16.50
2018-05-03T08:44:42.401Z,16.32
2018-05-03T08:47:09.817Z,16.33
2018-05-03T08:49:37.328Z,16.33
2018-05-03T08:52:04.799Z,16.39
2018-05-03T08:54:32.262Z,16.27
2018-05-03T08:56:59.878Z,16.26
2018-05-03T08:59:27.318Z,16.20
2018-05-03T09:01:54.853Z,16.25
2018-05-03T09:04:22.247Z,16.18
2018-05-03T09:06:49.689Z,15.91
2018-05-03T09:09:17.141Z,16.35
2018-05-03T09:11:44.617Z,16.57
2018-05-03T09:14:12.074Z,16.46
2018-05-03T09:16:39.576Z,16.28
2018-05-03T09:19:07.039Z,16.46
2018-05-03T09:21:34.528Z,16.64
2018-05-03T09:24:02.024Z,16.68
2018-05-03T09:26:29.472Z,16.71
2018-05-03T09:28:56.938Z,16.86
2018-05-03T09:31:24.389Z,16.72
2018-05-03T09:33:51.940Z,16.91
2018-05-03T09:36:19.372Z,17.00
2018-05-03T09:38:46.828Z,17.18
2018-05-03T09:41:14.247Z,17.31
2018-05-03T09:43:41.699Z,17.24
2018-05-03T09:46:09.126Z,17.30
2018-05-03T09:48:36.598Z,17.46
2018-05-03T09:51:04.090Z,17.53
2018-05-03T09:53:31.508Z,17.73
2018-05-03T09:55:58.952Z,17.66
2018-05-03T09:58:26.419Z,17.58
2018-05-03T10:00:53.888Z,17.60
2018-05-03T10:03:21.365Z,17.45
2018-05-03T10:05:48.811Z,17.57
2018-05-03T10:08:16.279Z,17.63
2018-05-03T10:10:43.747Z,17.67
2018-05-03T10:13:11.262Z,17.41
2018-05-03T10:15:38.704Z,17.39
2018-05-03T10:18:06.161Z,17.49
2018-05-03T10:20:33.662Z,17.69
2018-05-03T10:23:01.148Z,17.77
2018-05-03T10:25:28.582Z,17.74
2018-05-03T10:27:56.024Z,17.44
2018-05-03T10:30:23.467Z,17.42
2018-05-03T10:32:50.975Z,17.71
2018-05-03T10:35:18.503Z,17.63
2018-05-03T10:37:45.959Z,17.71
2018-05-03T10:40:13.426Z,17.58
2018-05-03T10:42:40.857Z,17.71
2018-05-03T10:45:08.459Z,17.44
2018-05-03T10:47:35.934Z,17.55
2018-05-03T10:50:03.386Z,17.60
2018-05-03T10:52:30.822Z,17.52
2018-05-03T10:54:58.282Z,17.38
2018-05-03T10:57:25.806Z,17.33
2018-05-03T10:59:53.193Z,17.36
2018-05-03T11:02:20.641Z,17.50
2018-05-03T11:04:48.100Z,17.48
2018-05-03T11:07:15.550Z,17.57
2018-05-03T11:09:43.008Z,17.68
2018-05-03T11:12:10.540Z,17.50
2018-05-03T11:14:37.981Z,17.58
2018-05-03T11:17:05.492Z,17.78
2018-05-03T11:19:33.079Z,17.55
2018-05-03T11:22:00.553Z,17.69
2018-05-03T11:24:27.991Z,17.80
2018-05-03T11:26:55.487Z,17.84
2018-05-03T11:29:22.975Z,17.92
2018-05-03T11:31:50.533Z,17.91
2018-05-03T11:34:17.994Z,17.84
2018-05-03T11:36:46.120Z,18.00
2018-05-03T11:39:13.542Z,17.96
2018-05-03T11:41:41.041Z,18.02
2018-05-03T11:44:08.531Z,18.12
2018-05-03T11:46:36.142Z,17.93
2018-05-03T11:49:03.594Z,17.81
2018-05-03T11:51:31.057Z,17.79
2018-05-03T11:53:58.515Z,17.89
2018-05-03T11:56:25.964Z,17.93
2018-05-03T11:58:54.127Z,18.01
2018-05-03T12:01:21.586Z,18.05
2018-05-03T12:03:49.099Z,18.15
2018-05-03T12:06:16.572Z,18.32
2018-05-03T12:08:44.015Z,18.46
2018-05-03T12:11:11.480Z,18.57
2018-05-03T12:13:39.121Z,18.48
2018-05-03T12:16:06.591Z,18.19
2018-05-03T12:18:34.117Z,18.51
2018-05-03T12:21:01.546Z,18.42
2018-05-03T12:23:29.028Z,18.49
2018-05-03T12:25:56.509Z,18.59
2018-05-03T12:28:23.997Z,18.88
2018-05-03T12:30:51.434Z,18.89
2018-05-03T12:33:18.895Z,19.21
2018-05-03T12:35:46.343Z,19.39
2018-05-03T12:38:13.769Z,19.52
2018-05-03T12:40:41.248Z,19.55
2018-05-03T12:43:08.685Z,19.68
2018-05-03T12:45:36.149Z,19.67
2018-05-03T12:48:03.665Z,19.77
2018-05-03T12:50:31.126Z,19.51
2018-05-03T12:52:58.584Z,19.36
2018-05-03T12:55:26.053Z,19.31
2018-05-03T12:57:53.507Z,19.25
2018-05-03T13:00:20.980Z,19.25
2018-05-03T13:02:48.459Z,19.12
2018-05-03T13:05:15.937Z,19.30
2018-05-03T13:07:43.413Z,19.42
2018-05-03T13:10:10.865Z,19.57
2018-05-03T13:12:38.352Z,19.74
2018-05-03T13:15:05.775Z,19.80
2018-05-03T13:17:33.254Z,20.07
2018-05-03T13:20:00.690Z,20.36
2018-05-03T13:22:28.138Z,20.54
2018-05-03T13:24:55.580Z,20.64
2018-05-03T13:27:23.043Z,20.77
2018-05-03T13:29:50.478Z,20.63
2018-05-03T13:32:18.089Z,20.79
2018-05-03T13:34:45.521Z,20.71
2018-05-03T13:37:12.974Z,20.60
2018-05-03T13:39:40.460Z,20.82
2018-05-03T13:42:07.918Z,21.05
2018-05-03T13:44:35.369Z,21.38
2018-05-03T13:47:03.452Z,21.41
2018-05-03T13:49:30.912Z,21.13
2018-05-03T13:51:58.462Z,21.50
2018-05-03T13:54:26.055Z,21.37
2018-05-03T13:56:53.576Z,21.49
2018-05-03T13:59:21.032Z,21.60
2018-05-03T14:01:48.499Z,21.92
2018-05-03T14:04:15.969Z,21.86
2018-05-03T14:06:43.403Z,21.98
2018-05-03T14:09:10.876Z,21.93
2018-05-03T14:11:38.328Z,21.93
2018-05-03T14:14:05.787Z,22.35
2018-05-03T14:16:33.221Z,22.13
2018-05-03T14:19:00.748Z,21.68
2018-05-03T14:21:28.436Z,21.65
2018-05-03T14:23:55.893Z,21.44
2018-05-03T14:26:23.385Z,21.45
2018-05-03T14:28:50.848Z,21.66
2018-05-03T14:31:18.294Z,22.04
2018-05-03T14:33:45.898Z,22.12
2018-05-03T14:36:13.349Z,22.30
2018-05-03T14:38:40.880Z,21.86
2018-05-03T14:41:08.354Z,21.59
2018-05-03T14:43:35.784Z,21.64
2018-05-03T14:46:03.270Z,21.62
2018-05-03T14:48:30.726Z,21.64
2018-05-03T14:50:58.191Z,21.45
2018-05-03T14:53:25.648Z,21.43
2018-05-03T14:55:53.217Z,21.21
2018-05-03T14:58:20.692Z,21.18
2018-05-03T15:00:48.104Z,21.35
2018-05-03T15:03:15.574Z,21.12
2018-05-03T15:05:43.011Z,20.99
2018-05-03T15:08:10.467Z,20.59
2018-05-03T15:10:37.941Z,20.52
2018-05-03T15:13:05.367Z,20.50
2018-05-03T15:15:32.800Z,20.45
2018-05-03T15:18:00.296Z,20.58
2018-05-03T15:20:27.722Z,20.33
2018-05-03T15:22:55.179Z,20.06
2018-05-03T15:25:22.644Z,20.22
2018-05-03T15:27:50.086Z,20.21
2018-05-03T15:30:17.560Z,20.24
2018-05-03T15:32:44.996Z,20.17
2018-05-03T15:35:12.475Z,20.27
2018-05-03T15:37:39.918Z,20.49
2018-05-03T15:40:07.373Z,20.59
2018-05-03T15:42:34.805Z,20.38
2018-05-03T15:45:02.312Z,20.33
2018-05-03T15:47:29.823Z,20.36
2018-05-03T15:49:57.362Z,20.37
2018-05-03T15:52:24.732Z,20.34
2018-05-03T15:54:52.196Z,20.33
2018-05-03T15:57:19.608Z,20.34
2018-05-03T15:59:47.088Z,20.44
2018-05-03T16:02:14.518Z,20.43
2018-05-03T16:04:42.101Z,20.31
2018-05-03T16:07:09.645Z,20.27
2018-05-03T16:09:37.068Z,20.30
2018-05-03T16:12:04.623Z,20.28
2018-05-03T16:14:32.081Z,20.21
2018-05-03T16:16:59.534Z,20.11
2018-05-03T16:19:26.984Z,20.03
2018-05-03T16:21:54.456Z,20.20
2018-05-03T16:24:21.918Z,20.32
2018-05-03T16:26:49.375Z,20.18
2018-05-03T16:29:16.842Z,20.18
2018-05-03T16:31:44.306Z,20.26
2018-05-03T16:34:11.807Z,20.29
2018-05-03T16:36:39.901Z,20.05
2018-05-03T16:39:07.370Z,19.81
2018-05-03T16:41:34.903Z,19.81
2018-05-03T16:44:02.352Z,19.74
2018-05-03T16:46:29.796Z,19.88
2018-05-03T16:48:57.258Z,19.71
2018-05-03T16:51:24.695Z,19.61
2018-05-03T16:53:56.004Z,19.64
2018-05-03T16:56:27.552Z,19.67
2018-05-03T16:58:55.011Z,19.55
2018-05-03T17:01:22.550Z,19.41
2018-05-03T17:03:50.062Z,19.39
2018-05-03T17:06:17.617Z,19.39
2018-05-03T17:08:45.984Z,19.35
2018-05-03T17:11:13.630Z,19.51
2018-05-03T17:13:41.213Z,19.39
2018-05-03T17:16:08.905Z,19.49
2018-05-03T17:18:36.560Z,19.56
2018-05-03T17:21:03.998Z,19.68
2018-05-03T17:23:31.468Z,19.70
2018-05-03T17:25:59.539Z,19.46
2018-05-03T17:28:26.980Z,19.45
2018-05-03T17:30:54.658Z,19.36
2018-05-03T17:33:22.106Z,19.39
2018-05-03T17:35:49.753Z,19.47
2018-05-03T17:38:17.831Z,19.29
2018-05-03T17:40:45.575Z,19.16
2018-05-03T17:43:13.060Z,18.92
2018-05-03T17:45:40.554Z,18.94
2018-05-03T17:48:08.007Z,19.07
2018-05-03T17:50:35.469Z,19.16
2018-05-03T17:53:03.375Z,19.17
2018-05-03T17:55:31.566Z,19.12
2018-05-03T17:57:59.037Z,19.09
2018-05-03T18:00:26.525Z,19.00
2018-05-03T18:02:54.031Z,18.94
2018-05-03T18:05:21.447Z,19.04
2018-05-03T18:07:48.897Z,18.97
2018-05-03T18:10:16.357Z,18.96
2018-05-03T18:15:17.866Z,19.02
2018-05-03T18:17:45.358Z,18.86
2018-05-03T18:20:12.779Z,18.95
2018-05-03T18:22:40.267Z,18.84
2018-05-03T18:25:07.724Z,18.78
2018-05-03T18:27:35.207Z,18.83
2018-05-03T18:30:02.652Z,18.86
2018-05-03T18:32:30.104Z,18.82
2018-05-03T18:34:57.577Z,18.90
2018-05-03T18:37:25.024Z,18.88
2018-05-03T18:39:52.527Z,18.87
2018-05-03T18:42:19.983Z,18.71
2018-05-03T18:44:47.476Z,18.66
2018-05-03T18:47:15.005Z,18.61
2018-05-03T18:49:42.637Z,18.62
2018-05-03T18:52:10.162Z,18.59
2018-05-03T18:54:37.751Z,18.56
2018-05-03T18:57:05.584Z,18.54
2018-05-03T18:59:33.097Z,18.49
2018-05-03T19:02:00.600Z,18.57
2018-05-03T19:04:28.043Z,18.62
2018-05-03T19:06:55.739Z,18.55
2018-05-03T19:09:23.542Z,18.31
2018-05-03T19:11:51.076Z,18.29
2018-05-03T19:14:18.466Z,18.26
2018-05-03T19:16:45.955Z,18.40
2018-05-03T19:19:13.392Z,18.43
2018-05-03T19:21:40.926Z,18.27
2018-05-03T19:24:08.372Z,18.35
2018-05-03T19:26:35.884Z,18.45
2018-05-03T19:29:04.033Z,18.47
2018-05-03T19:31:31.489Z,18.58
2018-05-03T19:33:58.960Z,18.52
2018-05-03T19:36:26.445Z,18.57
2018-05-03T19:38:53.973Z,18.43
2018-05-03T19:41:21.408Z,18.42
2018-05-03T19:43:48.860Z,18.58
2018-05-03T19:46:16.337Z,18.46
2018-05-03T19:48:43.821Z,18.51
2018-05-03T19:51:11.255Z,18.44
2018-05-03T19:53:38.754Z,18.50
2018-05-03T19:56:06.193Z,18.55
2018-05-03T19:58:33.680Z,18.54
2018-05-03T20:01:01.175Z,18.52
2018-05-03T20:03:28.631Z,18.54
2018-05-03T20:05:56.092Z,18.52
2018-05-03T20:08:23.588Z,18.36
2018-05-03T20:10:51.169Z,18.17
2018-05-03T20:13:18.830Z,18.11
2018-05-03T20:15:46.308Z,18.12
2018-05-03T20:18:13.753Z,18.20
2018-05-03T20:20:41.839Z,18.26
2018-05-03T20:23:09.307Z,18.20
2018-05-03T20:25:36.787Z,17.95
2018-05-03T20:28:04.245Z,17.82
2018-05-03T20:30:31.695Z,17.82
2018-05-03T20:32:59.180Z,17.86
2018-05-03T20:35:26.597Z,17.94
2018-05-03T20:37:54.042Z,17.93
2018-05-03T20:40:21.528Z,17.94
2018-05-03T20:42:48.995Z,17.74
2018-05-03T20:45:16.439Z,17.69
2018-05-03T20:47:43.915Z,17.64
2018-05-03T20:50:11.375Z,17.43
2018-05-03T20:52:38.793Z,17.60
2018-05-03T20:55:06.263Z,17.50
2018-05-03T20:57:33.856Z,17.57
2018-05-03T21:00:01.274Z,17.59
2018-05-03T21:02:28.725Z,17.48
2018-05-03T21:04:56.391Z,17.45
2018-05-03T21:07:23.845Z,17.62
2018-05-03T21:09:51.305Z,17.58
2018-05-03T21:12:19.611Z,17.53
2018-05-03T21:14:47.104Z,17.39
2018-05-03T21:17:14.535Z,17.40
2018-05-03T21:19:42.077Z,17.35
2018-05-03T21:22:09.528Z,17.31
2018-05-03T21:24:36.968Z,17.17
2018-05-03T21:27:04.431Z,17.36
2018-05-03T21:29:31.876Z,17.15
2018-05-03T21:31:59.325Z,17.06
2018-05-03T21:34:26.774Z,17.02
2018-05-03T21:36:54.260Z,16.98
2018-05-03T21:39:21.693Z,17.01
2018-05-03T21:41:49.247Z,16.99
2018-05-03T21:44:16.647Z,17.06
2018-05-03T21:46:44.101Z,17.18
2018-05-03T21:49:11.553Z,17.17
2018-05-03T21:51:39.035Z,17.05
2018-05-03T21:54:07.000Z,17.13
2018-05-03T21:56:34.569Z,17.22
2018-05-03T21:59:02.034Z,17.07
2018-05-03T22:01:29.475Z,17.01
2018-05-03T22:03:57.033Z,17.11
2018-05-03T22:06:24.382Z,17.02
2018-05-03T22:08:51.866Z,16.97
2018-05-03T22:11:19.313Z,17.11
2018-05-03T22:13:46.826Z,17.06
2018-05-03T22:16:14.269Z,17.00
2018-05-03T22:18:41.817Z,16.93
2018-05-03T22:21:09.253Z,17.05
2018-05-03T22:23:36.775Z,17.00
2018-05-03T22:26:04.291Z,17.05
2018-05-03T22:28:31.765Z,17.06
2018-05-03T22:30:59.272Z,17.07
2018-05-03T22:33:26.707Z,17.10
2018-05-03T22:35:54.173Z,17.10
2018-05-03T22:38:22.469Z,17.17
2018-05-03T22:40:50.118Z,17.15
2018-05-03T22:43:17.545Z,17.13
2018-05-03T22:45:45.044Z,17.22
2018-05-03T22:48:12.510Z,17.31
2018-05-03T22:50:40.607Z,17.20
2018-05-03T22:53:08.107Z,17.29
2018-05-03T22:55:35.631Z,17.32
2018-05-03T22:58:03.084Z,17.31
2018-05-03T23:00:30.612Z,17.34
2018-05-03T23:02:58.069Z,17.33
2018-05-03T23:05:25.579Z,17.25
2018-05-03T23:07:53.041Z,17.29
2018-05-03T23:10:20.778Z,17.27
2018-05-03T23:12:48.238Z,17.17
2018-05-03T23:15:15.678Z,17.02
2018-05-03T23:17:43.125Z,17.01
2018-05-03T23:20:10.590Z,17.06
2018-05-03T23:22:38.108Z,16.82
2018-05-03T23:25:05.545Z,16.95
2018-05-03T23:27:33.021Z,17.02
2018-05-03T23:30:00.559Z,17.09
2018-05-03T23:32:28.091Z,17.10
2018-05-03T23:34:55.565Z,17.17
2018-05-03T23:37:22.997Z,17.04
2018-05-03T23:39:50.524Z,17.06
2018-05-03T23:42:17.980Z,17.13
2018-05-03T23:44:45.469Z,17.21
2018-05-03T23:47:13.000Z,17.13
2018-05-03T23:49:40.453Z,17.00
2018-05-03T23:52:07.901Z,17.04
2018-05-03T23:54:35.375Z,16.98
2018-05-03T23:57:02.877Z,17.00
2018-05-03T23:59:30.357Z,16.84
